Cleveland, Missouri
Current Conditions -  °F | °C
As of 6:53 AM on Monday 22 Dec 2014 (Local Time) from KOJC Reporting Station
Light Rain Light Rain  
Wind Chill: 35°   Ceiling: 300
Heat Index: 41°   Visibility: 3mi
Dew Point: 41°   Wind: 10mph
Humidity: 100%   Direction: 160°SSE
Pressure: 29.6"   Gusts: NA
Location:  38.68°N, 94.59°W
Report Text: KOJC 221253Z 16009KT 3SM -RA BR OVC003 05/05 A2960 RMK AO2 RAB23 SLP026 P0001 T00500050
Loading
Personal Weather Stations






























Interactive Weather Map New forecast layout! Learn more

10-Day Weather Forecast

Advertisements
Track Severe Weather on mobile